Time;durP1;ratioP1;P1;durP2;ratioP2;P2;SDS_P1;SDS_P2;PMS_P1;PMS_P2;Temp;Humidity;BMP_temperature;BMP_pressure;BME280_temperature;BME280_humidity;BME280_pressure;Samples;Min_cycle;Max_cycle;Signal;HPM_P1;HPM_P2
2021/10/20 00:00:31;;;;;;;2.33;2.13;;;;;;;5.41;100.00;93460.53;2115714;28;20023;-89
2021/10/20 00:01:37;;;;;;;3.22;1.92;;;;;;;5.41;100.00;93457.13;2098938;28;20060;-88
2021/10/20 00:02:38;;;;;;;3.05;2.33;;;;;;;5.44;100.00;93467.72;2100289;28;20466;-89
2021/10/20 00:03:43;;;;;;;2.65;2.42;;;;;;;5.57;100.00;93457.53;2108348;27;20028;-91
2021/10/20 00:04:44;;;;;;;2.80;2.00;;;;;;;5.53;100.00;93452.25;2115543;28;20110;-87
2021/10/20 00:05:45;;;;;;;5.93;2.20;;;;;;;5.50;100.00;93462.84;2107438;28;20024;-90
2021/10/20 00:06:47;;;;;;;4.43;2.20;;;;;;;5.53;100.00;93457.53;2107057;28;20031;-87
2021/10/20 00:07:50;;;;;;;2.40;2.08;;;;;;;5.54;100.00;93451.09;2106060;28;20052;-88
2021/10/20 00:08:54;;;;;;;3.08;1.80;;;;;;;5.49;100.00;93450.72;2096911;28;20465;-90
2021/10/20 00:09:57;;;;;;;4.82;2.25;;;;;;;5.55;100.00;93449.22;2099330;28;20020;-91
2021/10/20 00:10:59;;;;;;;2.72;1.90;;;;;;;5.47;100.00;93450.31;2107565;28;20443;-89
2021/10/20 00:12:00;;;;;;;3.33;2.42;;;;;;;5.62;100.00;93453.75;2102969;28;20024;-91
2021/10/20 00:13:02;;;;;;;2.42;2.10;;;;;;;5.56;100.00;93456.78;2098949;28;20017;-91
2021/10/20 00:14:04;;;;;;;2.10;1.90;;;;;;;5.56;100.00;93446.16;2098954;28;20101;-88
2021/10/20 00:15:08;;;;;;;2.67;1.88;;;;;;;5.48;100.00;93449.19;2098821;28;20481;-89
2021/10/20 00:16:09;;;;;;;2.63;2.42;;;;;;;5.39;100.00;93444.22;2091488;28;20410;-87
2021/10/20 00:17:10;;;;;;;2.00;1.83;;;;;;;5.33;100.00;93442.34;2090607;28;20151;-88
2021/10/20 00:18:11;;;;;;;2.92;2.30;;;;;;;5.34;100.00;93444.59;2098782;28;20608;-90
2021/10/20 00:19:12;;;;;;;2.75;2.28;;;;;;;5.25;100.00;93439.66;2090692;28;20033;-88
2021/10/20 00:20:19;;;;;;;2.25;2.05;;;;;;;5.20;100.00;93444.56;2090830;28;20032;-88
2021/10/20 00:21:25;;;;;;;2.70;1.95;;;;;;;5.22;100.00;93439.63;2108185;28;20024;-90
2021/10/20 00:22:26;;;;;;;2.83;2.05;;;;;;;5.32;100.00;93438.94;2115564;28;20023;-88
2021/10/20 00:23:27;;;;;;;3.28;1.90;;;;;;;5.24;100.00;93437.38;2098742;28;20020;-91
2021/10/20 00:24:28;;;;;;;2.20;2.00;;;;;;;5.26;100.00;93433.22;2090334;28;20024;-89
2021/10/20 00:25:29;;;;;;;3.90;2.05;;;;;;;5.28;100.00;93440.81;2090561;28;20111;-89
2021/10/20 00:26:30;;;;;;;4.90;2.22;;;;;;;5.35;100.00;93440.81;2114989;28;20023;-88
2021/10/20 00:27:31;;;;;;;3.00;2.03;;;;;;;5.30;100.00;93433.97;2106909;28;20035;-88
2021/10/20 00:28:32;;;;;;;2.40;1.85;;;;;;;5.21;100.00;93438.88;2098494;28;20547;-86
2021/10/20 00:29:33;;;;;;;4.68;2.00;;;;;;;5.30;100.00;93438.53;2105597;28;20047;-86
2021/10/20 00:30:34;;;;;;;2.65;2.03;;;;;;;5.22;100.00;93437.75;2098753;28;20072;-89
2021/10/20 00:31:35;;;;;;;3.67;2.00;;;;;;;5.17;100.00;93438.09;2098757;28;20043;-88
2021/10/20 00:32:37;;;;;;;2.60;2.10;;;;;;;5.26;100.00;93433.22;2098768;28;20054;-90
2021/10/20 00:33:38;;;;;;;4.35;2.47;;;;;;;5.34;100.00;93435.88;2098588;28;20021;-88
2021/10/20 00:34:38;;;;;;;3.47;2.10;;;;;;;5.25;100.00;93428.28;2107068;28;20028;-90
2021/10/20 00:35:40;;;;;;;4.20;2.00;;;;;;;5.22;100.00;93429.03;2106834;28;20024;-86
2021/10/20 00:36:40;;;;;;;2.15;1.80;;;;;;;5.24;100.00;93437.38;2106695;28;20032;-87
2021/10/20 00:37:41;;;;;;;2.85;2.40;;;;;;;5.24;100.00;93432.84;2106864;28;20028;-89
2021/10/20 00:38:42;;;;;;;2.95;2.22;;;;;;;5.27;100.00;93428.69;2106600;28;20024;-91
2021/10/20 00:39:44;;;;;;;2.40;2.08;;;;;;;5.36;100.00;93420.38;2098596;28;20162;-87
2021/10/20 00:40:44;;;;;;;2.28;2.00;;;;;;;5.37;100.00;93432.50;2098606;28;20119;-89
2021/10/20 00:41:46;;;;;;;3.65;2.38;;;;;;;5.38;100.00;93424.16;2090389;28;20032;-90
2021/10/20 00:42:47;;;;;;;2.50;2.10;;;;;;;5.30;100.00;93425.28;2090487;28;20044;-88
2021/10/20 00:43:48;;;;;;;3.42;2.22;;;;;;;5.42;100.00;93424.19;2090498;28;20032;-87
2021/10/20 00:45:00;;;;;;;3.63;2.40;;;;;;;5.29;100.00;93427.16;2098576;28;20044;-90
2021/10/20 00:46:01;;;;;;;2.47;2.10;;;;;;;5.17;100.00;93421.44;2101705;28;20598;-88
2021/10/20 00:47:08;;;;;;;5.10;2.38;;;;;;;5.14;100.00;93416.91;2106969;28;20102;-86
2021/10/20 00:48:08;;;;;;;2.33;2.13;;;;;;;5.14;100.00;93422.22;2098444;28;20641;-87
2021/10/20 00:49:10;;;;;;;2.83;2.42;;;;;;;5.23;100.00;93418.06;2090414;28;20068;-90
2021/10/20 00:50:12;;;;;;;4.55;2.13;;;;;;;5.24;100.00;93416.19;2090434;28;20461;-88
2021/10/20 00:51:13;;;;;;;3.05;2.28;;;;;;;5.20;100.00;93416.16;2090842;28;20079;-90
2021/10/20 00:52:15;;;;;;;2.33;2.13;;;;;;;5.15;100.00;93410.47;2090072;28;20024;-88
2021/10/20 00:53:16;;;;;;;3.50;2.45;;;;;;;5.13;100.00;93412.72;2090447;28;20023;-89
2021/10/20 00:54:17;;;;;;;3.53;2.35;;;;;;;5.09;100.00;93415.34;2090345;28;20033;-90
2021/10/20 00:55:18;;;;;;;2.83;2.20;;;;;;;5.01;100.00;93406.63;2098500;28;20052;-91
2021/10/20 00:56:19;;;;;;;3.30;2.03;;;;;;;5.18;100.00;93399.88;2096736;28;20051;-87
2021/10/20 00:57:21;;;;;;;2.40;2.15;;;;;;;5.07;100.00;93404.38;2098460;28;20034;-89
2021/10/20 00:58:22;;;;;;;2.30;1.90;;;;;;;5.12;100.00;93401.38;2107117;28;20118;-90
2021/10/20 00:59:23;;;;;;;2.15;1.95;;;;;;;5.11;100.00;93404.41;2106704;28;20416;-88
2021/10/20 01:00:24;;;;;;;6.60;2.22;;;;;;;5.03;100.00;93403.59;2106555;28;20435;-87
2021/10/20 01:01:25;;;;;;;3.30;2.38;;;;;;;4.99;100.00;93400.94;2098321;28;20048;-88
2021/10/20 01:02:26;;;;;;;2.95;1.80;;;;;;;5.04;100.00;93394.53;2098313;28;20020;-89
2021/10/20 01:03:31;;;;;;;4.65;2.05;;;;;;;4.98;100.00;93394.13;2108097;27;20027;-91
2021/10/20 01:04:33;;;;;;;2.75;2.35;;;;;;;4.94;100.00;93388.06;2107521;28;20016;-87
2021/10/20 01:05:34;;;;;;;3.35;2.22;;;;;;;4.88;100.00;93386.91;2098676;28;20020;-87
2021/10/20 01:06:36;;;;;;;2.17;1.98;;;;;;;4.98;100.00;93385.44;2106727;28;20031;-91
2021/10/20 01:07:39;;;;;;;2.70;2.38;;;;;;;4.87;100.00;93374.03;2106777;28;20048;-90
2021/10/20 01:08:40;;;;;;;4.60;2.33;;;;;;;4.78;100.00;93385.75;2098255;28;20094;-88
2021/10/20 01:09:41;;;;;;;3.05;2.28;;;;;;;4.82;100.00;93382.31;2098473;28;20519;-91
2021/10/20 01:10:42;;;;;;;4.05;2.30;;;;;;;4.81;100.00;93381.56;2106814;28;20449;-91
2021/10/20 01:11:44;;;;;;;3.30;2.25;;;;;;;4.92;100.00;93387.69;2098205;28;20393;-89
2021/10/20 01:12:45;;;;;;;4.25;2.20;;;;;;;4.88;100.00;93381.63;2106448;28;20469;-89
2021/10/20 01:13:46;;;;;;;2.97;2.03;;;;;;;4.92;100.00;93386.94;2102778;28;20028;-90
2021/10/20 01:14:48;;;;;;;3.17;2.22;;;;;;;4.90;100.00;93383.88;2115036;28;20464;-90
2021/10/20 01:15:49;;;;;;;3.88;2.17;;;;;;;4.85;100.00;93382.34;2098336;28;20067;-89
2021/10/20 01:16:49;;;;;;;2.65;2.13;;;;;;;4.83;100.00;93378.53;2098335;28;20162;-87
2021/10/20 01:17:51;;;;;;;3.40;2.75;;;;;;;4.83;100.00;93384.63;2098355;28;20066;-86
2021/10/20 01:18:53;;;;;;;3.80;2.35;;;;;;;4.90;100.00;93376.69;2106693;28;20028;-87
2021/10/20 01:19:58;;;;;;;2.20;2.00;;;;;;;4.93;100.00;93378.59;2106851;28;20020;-88
2021/10/20 01:21:03;;;;;;;4.95;2.20;;;;;;;4.88;100.00;93371.03;2098676;28;20111;-93
2021/10/20 01:22:04;;;;;;;2.75;2.47;;;;;;;4.93;100.00;93375.94;2091038;28;20095;-91
2021/10/20 01:23:05;;;;;;;2.47;2.28;;;;;;;4.93;100.00;93373.31;2089916;28;20025;-89
2021/10/20 01:24:07;;;;;;;2.67;2.33;;;;;;;4.96;100.00;93369.13;2098463;28;20025;-86
2021/10/20 01:25:09;;;;;;;2.65;2.45;;;;;;;4.94;100.00;93366.13;2106794;28;20024;-86
2021/10/20 01:26:10;;;;;;;2.78;2.30;;;;;;;4.91;100.00;93364.97;2098613;28;20513;-87
2021/10/20 01:27:11;;;;;;;2.42;2.10;;;;;;;4.91;100.00;93364.97;2098564;28;20024;-89
2021/10/20 01:28:13;;;;;;;2.38;2.17;;;;;;;4.89;100.00;93363.81;2106442;28;20035;-89
2021/10/20 01:29:14;;;;;;;2.70;2.15;;;;;;;4.88;100.00;93364.97;2098367;28;20023;-90
2021/10/20 01:30:15;;;;;;;7.30;2.80;;;;;;;4.93;100.00;93368.00;2098338;28;20020;-89
2021/10/20 01:31:16;;;;;;;3.35;2.42;;;;;;;4.97;100.00;93363.47;2098222;28;20513;-90
2021/10/20 01:32:17;;;;;;;4.55;2.17;;;;;;;4.97;100.00;93360.84;2106571;28;20072;-89
2021/10/20 01:33:18;;;;;;;3.63;2.45;;;;;;;5.01;100.00;93358.94;2106692;28;20059;-89
2021/10/20 01:34:20;;;;;;;2.60;2.30;;;;;;;5.06;100.00;93357.84;2106493;28;20027;-89
2021/10/20 01:35:21;;;;;;;2.67;2.47;;;;;;;5.06;100.00;93368.44;2098525;28;20021;-89
2021/10/20 01:36:21;;;;;;;2.63;2.42;;;;;;;5.11;100.00;93351.41;2106571;28;20024;-87
2021/10/20 01:37:24;;;;;;;3.75;2.65;;;;;;;5.15;100.00;93352.19;2106415;28;20066;-89
2021/10/20 01:38:26;;;;;;;3.05;2.63;;;;;;;5.04;100.00;93365.38;2098305;28;20020;-87
2021/10/20 01:39:27;;;;;;;2.70;2.50;;;;;;;4.92;100.00;93361.19;2106566;28;20028;-89
2021/10/20 01:40:29;;;;;;;3.28;3.00;;;;;;;4.97;100.00;93357.44;2089975;28;20028;-87
2021/10/20 01:41:33;;;;;;;3.20;2.67;;;;;;;5.04;100.00;93354.78;2089955;28;20502;-89
2021/10/20 01:42:35;;;;;;;3.35;2.58;;;;;;;5.02;100.00;93349.13;2099144;28;20102;-89
2021/10/20 01:43:48;;;;;;;3.25;2.95;;;;;;;4.91;100.00;93348.31;2115078;28;20023;-90
2021/10/20 01:44:49;;;;;;;2.92;2.63;;;;;;;4.93;100.00;93352.13;2106516;28;20107;-90
2021/10/20 01:45:50;;;;;;;2.95;2.45;;;;;;;5.18;100.00;93349.53;2098148;28;20115;-88
2021/10/20 01:46:51;;;;;;;5.05;2.35;;;;;;;5.03;100.00;93342.69;2098080;28;20020;-90
2021/10/20 01:47:52;;;;;;;2.88;2.60;;;;;;;4.94;100.00;93343.03;2107409;27;20027;-89
2021/10/20 01:48:53;;;;;;;4.40;2.50;;;;;;;4.94;100.00;93337.72;2123181;27;20502;-89
2021/10/20 01:49:55;;;;;;;2.95;2.30;;;;;;;4.98;100.00;93340.41;2114593;28;20044;-88
2021/10/20 01:50:56;;;;;;;6.43;2.55;;;;;;;4.88;100.00;93341.13;2114761;28;20027;-88
2021/10/20 01:51:57;;;;;;;3.53;3.22;;;;;;;4.78;100.00;93337.28;2098107;28;20020;-88
2021/10/20 01:52:58;;;;;;;5.20;2.80;;;;;;;4.83;100.00;93336.16;2106449;28;20071;-90
2021/10/20 01:53:59;;;;;;;3.05;2.55;;;;;;;4.80;100.00;93329.75;2114908;27;20019;-89
2021/10/20 01:54:59;;;;;;;5.00;2.90;;;;;;;4.78;100.00;93329.34;2115067;28;20023;-89
2021/10/20 01:56:00;;;;;;;2.95;2.60;;;;;;;4.83;100.00;93330.88;2114825;28;20023;-89
2021/10/20 01:57:01;;;;;;;4.53;2.80;;;;;;;5.05;100.00;93327.94;2098049;28;20070;-91
2021/10/20 01:58:02;;;;;;;4.07;3.15;;;;;;;4.96;100.00;93329.41;2098131;28;20028;-92
2021/10/20 01:59:03;;;;;;;3.85;2.85;;;;;;;4.99;100.00;93323.38;2106203;28;20020;-88
2021/10/20 02:00:06;;;;;;;6.68;3.05;;;;;;;4.96;100.00;93322.25;2106347;28;20027;-92
2021/10/20 02:01:07;;;;;;;4.50;2.55;;;;;;;5.06;100.00;93320.75;2098153;28;20086;-87
2021/10/20 02:02:19;;;;;;;5.32;2.83;;;;;;;4.93;100.00;93315.03;2098056;28;20024;-88
2021/10/20 02:03:20;;;;;;;2.95;2.60;;;;;;;4.85;100.00;93310.09;2101097;28;20066;-90
2021/10/20 02:04:23;;;;;;;5.80;3.25;;;;;;;4.77;100.00;93315.34;2114999;28;20016;-89
2021/10/20 02:05:24;;;;;;;4.38;2.95;;;;;;;4.81;100.00;93310.06;2106338;28;20020;-89
2021/10/20 02:06:25;;;;;;;6.57;2.92;;;;;;;4.78;100.00;93308.16;2098186;28;20024;-90
2021/10/20 02:07:29;;;;;;;5.13;3.05;;;;;;;4.84;100.00;93314.63;2100063;28;20056;-88
2021/10/20 02:08:31;;;;;;;3.80;3.00;;;;;;;4.90;100.00;93307.81;2093330;28;20506;-85
2021/10/20 02:09:33;;;;;;;4.65;3.60;;;;;;;4.90;100.00;93307.06;2116519;28;20365;-89
2021/10/20 02:10:34;;;;;;;2.63;2.42;;;;;;;4.78;100.00;93303.66;2117953;28;20049;-85
2021/10/20 02:11:36;;;;;;;3.40;3.00;;;;;;;4.73;100.00;93303.22;2109188;28;20020;-86
2021/10/20 02:12:38;;;;;;;3.35;3.05;;;;;;;4.70;100.00;93302.09;2106472;28;20077;-87
2021/10/20 02:13:40;;;;;;;3.40;3.10;;;;;;;4.71;100.00;93308.16;2106473;28;20058;-88
2021/10/20 02:14:41;;;;;;;5.13;3.40;;;;;;;4.76;100.00;93303.25;2106491;28;20492;-92
2021/10/20 02:15:42;;;;;;;3.30;3.00;;;;;;;4.82;100.00;93294.94;2098036;28;20090;-90
2021/10/20 02:16:43;;;;;;;5.25;2.90;;;;;;;4.93;100.00;93301.03;2106278;28;20523;-86
2021/10/20 02:17:44;;;;;;;6.75;3.08;;;;;;;4.90;100.00;93289.28;2089728;28;20801;-89
2021/10/20 02:18:45;;;;;;;4.43;2.97;;;;;;;4.82;100.00;93287.75;2097912;28;20062;-90
2021/10/20 02:19:46;;;;;;;3.65;3.13;;;;;;;4.76;100.00;93292.66;2110634;28;20088;-88
2021/10/20 02:20:47;;;;;;;3.05;2.70;;;;;;;4.85;100.00;93289.66;2110463;28;20020;-88
2021/10/20 02:21:48;;;;;;;6.20;2.75;;;;;;;4.83;100.00;93289.28;2098044;28;20046;-87
2021/10/20 02:22:49;;;;;;;4.25;3.00;;;;;;;4.83;100.00;93288.50;2106208;28;20020;-92
2021/10/20 02:23:50;;;;;;;2.72;2.50;;;;;;;4.89;100.00;93285.13;2097985;28;20036;-88
2021/10/20 02:24:51;;;;;;;4.32;3.10;;;;;;;4.88;100.00;93286.28;2089573;28;20071;-91
2021/10/20 02:25:52;;;;;;;2.90;2.42;;;;;;;4.78;100.00;93276.38;2102924;28;20138;-87
2021/10/20 02:26:53;;;;;;;3.85;2.65;;;;;;;4.83;100.00;93281.34;2114770;28;20696;-88
2021/10/20 02:27:54;;;;;;;4.43;2.63;;;;;;;4.81;100.00;93280.94;2106282;28;20024;-89
2021/10/20 02:28:55;;;;;;;3.67;2.78;;;;;;;4.73;100.00;93277.50;2097775;28;20028;-89
2021/10/20 02:29:56;;;;;;;3.83;2.55;;;;;;;4.73;100.00;93279.41;2106211;28;20493;-89
2021/10/20 02:30:57;;;;;;;3.40;2.85;;;;;;;4.71;100.00;93281.69;2106172;28;20111;-89
2021/10/20 02:32:01;;;;;;;3.03;2.65;;;;;;;4.68;100.00;93285.81;2097789;28;20016;-89
2021/10/20 02:33:03;;;;;;;4.53;2.72;;;;;;;4.67;100.00;93284.31;2098921;28;20063;-87
2021/10/20 02:34:04;;;;;;;3.95;3.08;;;;;;;4.68;100.00;93277.13;2098089;28;20027;-87
2021/10/20 02:35:08;;;;;;;3.25;2.60;;;;;;;4.65;100.00;93278.63;2097984;28;20463;-88
2021/10/20 02:36:09;;;;;;;4.50;2.55;;;;;;;4.62;100.00;93271.44;2098248;28;20055;-92
2021/10/20 02:37:10;;;;;;;4.82;2.75;;;;;;;4.61;100.00;93269.94;2097909;28;20021;-88
2021/10/20 02:38:11;;;;;;;4.93;2.65;;;;;;;4.51;100.00;93274.03;2097849;28;20020;-90
2021/10/20 02:39:12;;;;;;;3.38;2.80;;;;;;;4.52;100.00;93264.19;2089499;28;20116;-89
2021/10/20 02:40:14;;;;;;;3.35;3.00;;;;;;;4.52;100.00;93272.94;2089732;28;20040;-90
2021/10/20 02:41:15;;;;;;;3.17;2.80;;;;;;;4.53;100.00;93263.09;2098252;28;20029;-87
2021/10/20 02:42:16;;;;;;;5.50;3.17;;;;;;;4.41;100.00;93258.88;2098081;28;20021;-88
2021/10/20 02:43:17;;;;;;;4.72;3.08;;;;;;;4.41;100.00;93269.47;2098063;28;20116;-89
2021/10/20 02:44:18;;;;;;;3.17;2.47;;;;;;;4.52;100.00;93257.03;2098187;28;20102;-89
2021/10/20 02:45:20;;;;;;;2.88;2.55;;;;;;;4.47;100.00;93264.56;2097892;28;20020;-87
2021/10/20 02:46:21;;;;;;;3.35;2.90;;;;;;;4.49;100.00;93265.72;2089693;28;20031;-87
2021/10/20 02:47:22;;;;;;;3.55;2.90;;;;;;;4.51;100.00;93258.16;2089564;28;20529;-90
2021/10/20 02:48:22;;;;;;;6.28;3.40;;;;;;;4.60;100.00;93259.69;2098078;28;20159;-90
2021/10/20 02:49:23;;;;;;;3.97;3.58;;;;;;;4.60;100.00;93260.44;2106070;28;20024;-89
2021/10/20 02:50:28;;;;;;;4.85;3.03;;;;;;;4.61;100.00;93255.91;2097761;28;20511;-92
2021/10/20 02:51:30;;;;;;;4.10;2.60;;;;;;;4.57;100.00;93255.94;2090597;28;20024;-88
2021/10/20 02:52:31;;;;;;;4.28;2.80;;;;;;;4.61;100.00;93261.22;2089580;28;20021;-92
2021/10/20 02:53:32;;;;;;;7.07;2.92;;;;;;;4.54;100.00;93254.78;2098105;28;20077;-87
2021/10/20 02:54:33;;;;;;;4.10;3.15;;;;;;;4.52;100.00;93253.63;2097754;28;20048;-92
2021/10/20 02:55:35;;;;;;;5.45;2.97;;;;;;;4.49;100.00;93249.84;2097865;28;20020;-89
2021/10/20 02:56:36;;;;;;;3.90;3.00;;;;;;;4.58;100.00;93252.13;2098437;28;20052;-92
2021/10/20 02:57:38;;;;;;;3.30;3.00;;;;;;;4.49;100.00;93254.38;2097830;28;20020;-91
2021/10/20 02:58:38;;;;;;;4.30;3.00;;;;;;;4.44;100.00;93250.22;2098125;28;20017;-92
2021/10/20 02:59:39;;;;;;;3.55;2.90;;;;;;;4.41;100.00;93247.53;2097944;28;20028;-90
2021/10/20 03:00:40;;;;;;;3.50;3.20;;;;;;;4.46;100.00;93252.47;2098014;28;20126;-91
2021/10/20 03:01:41;;;;;;;4.82;3.28;;;;;;;4.49;100.00;93257.78;2106098;28;20053;-89
2021/10/20 03:02:43;;;;;;;4.63;3.28;;;;;;;4.48;100.00;93253.63;2106169;28;20061;-91
2021/10/20 03:03:45;;;;;;;4.15;3.25;;;;;;;4.43;100.00;93251.31;2106193;28;20027;-90
2021/10/20 03:04:48;;;;;;;8.20;3.85;;;;;;;4.40;100.00;93246.78;2098257;28;20031;-88
2021/10/20 03:05:49;;;;;;;3.78;3.40;;;;;;;4.40;100.00;93252.09;2097894;28;20382;-90
2021/10/20 03:06:51;;;;;;;4.28;3.13;;;;;;;4.45;100.00;93250.97;2098213;28;20020;-86
2021/10/20 03:07:56;;;;;;;4.45;3.08;;;;;;;4.38;100.00;93245.63;2106812;28;20161;-90
2021/10/20 03:08:58;;;;;;;5.82;3.72;;;;;;;4.30;100.00;93244.84;2114423;28;20019;-88
2021/10/20 03:09:59;;;;;;;4.05;3.10;;;;;;;4.29;100.00;93253.91;2106434;28;20073;-90
2021/10/20 03:11:00;;;;;;;3.15;2.75;;;;;;;4.25;100.00;93255.78;2106137;28;20024;-92
2021/10/20 03:12:00;;;;;;;4.93;3.90;;;;;;;4.28;100.00;93249.75;2107751;28;20016;-90
2021/10/20 03:13:01;;;;;;;5.88;3.58;;;;;;;4.32;100.00;93249.78;2107524;28;20077;-90
2021/10/20 03:14:02;;;;;;;7.28;3.50;;;;;;;4.44;100.00;93252.09;2091052;28;20024;-88
2021/10/20 03:15:04;;;;;;;4.07;3.35;;;;;;;4.28;100.00;93252.41;2090994;28;20474;-88
2021/10/20 03:16:05;;;;;;;5.20;3.20;;;;;;;4.24;100.00;93251.63;2091198;28;20028;-90
2021/10/20 03:17:07;;;;;;;4.40;3.50;;;;;;;4.25;100.00;93255.78;2091286;28;20029;-87
2021/10/20 03:18:08;;;;;;;4.10;3.20;;;;;;;4.42;100.00;93255.09;2090893;28;20021;-89
2021/10/20 03:19:09;;;;;;;4.00;3.42;;;;;;;4.33;100.00;93244.09;2102090;28;20019;-86
2021/10/20 03:20:10;;;;;;;6.05;3.85;;;;;;;4.23;100.00;93250.13;2106728;28;20023;-87
2021/10/20 03:21:11;;;;;;;5.30;3.97;;;;;;;4.27;100.00;93254.28;2106806;28;20065;-91
2021/10/20 03:22:12;;;;;;;3.35;3.00;;;;;;;4.21;100.00;93247.84;2098910;28;20028;-90
2021/10/20 03:23:13;;;;;;;5.55;3.45;;;;;;;4.18;100.00;93240.66;2098496;28;20063;-90
2021/10/20 03:24:14;;;;;;;5.13;3.70;;;;;;;4.22;100.00;93248.63;2098613;28;20073;-90
2021/10/20 03:25:15;;;;;;;4.10;3.42;;;;;;;4.31;100.00;93242.97;2106403;28;20073;-89
2021/10/20 03:26:16;;;;;;;6.57;3.80;;;;;;;4.27;100.00;93250.91;2105833;28;20020;-87
2021/10/20 03:27:19;;;;;;;4.25;3.60;;;;;;;4.21;100.00;93242.53;2112120;28;20019;-86
2021/10/20 03:28:20;;;;;;;4.93;3.30;;;;;;;4.24;100.00;93239.16;2098137;28;20052;-88
2021/10/20 03:29:21;;;;;;;5.07;3.22;;;;;;;4.24;100.00;93243.69;2098376;28;20028;-86
2021/10/20 03:30:23;;;;;;;4.35;3.60;;;;;;;4.22;100.00;93235.38;2106822;28;20031;-87
2021/10/20 03:31:23;;;;;;;5.00;3.65;;;;;;;4.20;100.00;93237.63;2100969;28;20035;-89
2021/10/20 03:32:24;;;;;;;4.68;4.07;;;;;;;4.13;100.00;93241.00;2098593;28;20020;-88
2021/10/20 03:33:25;;;;;;;6.50;3.90;;;;;;;4.06;100.00;93233.03;2107368;28;20124;-90
2021/10/20 03:34:26;;;;;;;6.80;4.00;;;;;;;4.09;100.00;93234.19;2107021;28;20020;-88
2021/10/20 03:35:27;;;;;;;4.57;3.78;;;;;;;4.16;100.00;93232.31;2098818;28;20044;-86
2021/10/20 03:36:29;;;;;;;4.97;4.47;;;;;;;4.14;100.00;93245.16;2098794;28;20017;-87
2021/10/20 03:37:30;;;;;;;6.55;4.10;;;;;;;4.17;100.00;93235.72;2107425;28;20028;-89
2021/10/20 03:38:30;;;;;;;3.95;3.55;;;;;;;4.19;100.00;93223.66;2107211;28;20370;-90
2021/10/20 03:39:31;;;;;;;5.40;3.90;;;;;;;4.20;100.00;93224.41;2107364;28;20024;-87
2021/10/20 03:40:34;;;;;;;3.78;3.40;;;;;;;4.24;100.00;93223.28;2111576;28;20197;-87
2021/10/20 03:41:35;;;;;;;5.13;4.40;;;;;;;4.21;100.00;93228.56;2104959;28;20434;-85
2021/10/20 03:42:36;;;;;;;3.50;3.17;;;;;;;4.24;100.00;93225.94;2107168;28;20028;-88
2021/10/20 03:43:38;;;;;;;5.85;3.65;;;;;;;4.27;100.00;93225.19;2111513;28;20034;-89
2021/10/20 03:44:39;;;;;;;4.38;3.60;;;;;;;4.18;100.00;93216.84;2107042;28;20046;-86
2021/10/20 03:45:40;;;;;;;4.28;3.72;;;;;;;4.13;100.00;93214.56;2098961;28;20025;-88
2021/10/20 03:46:41;;;;;;;4.78;3.80;;;;;;;4.11;100.00;93218.69;2098887;28;20024;-89
2021/10/20 03:47:43;;;;;;;5.03;3.83;;;;;;;4.15;100.00;93208.91;2099081;28;20386;-88
2021/10/20 03:48:44;;;;;;;5.43;4.15;;;;;;;4.24;100.00;93210.06;2099129;28;20025;-88
2021/10/20 03:49:49;;;;;;;4.80;3.55;;;;;;;4.24;100.00;93211.94;2106961;28;20666;-89
2021/10/20 03:50:50;;;;;;;5.63;3.42;;;;;;;4.41;100.00;93205.19;2098263;28;20024;-85
2021/10/20 03:51:51;;;;;;;7.75;3.85;;;;;;;4.38;100.00;93209.34;2098749;28;20524;-88
2021/10/20 03:52:52;;;;;;;5.10;3.40;;;;;;;4.33;100.00;93203.66;2097569;28;20086;-91
2021/10/20 03:53:53;;;;;;;5.38;3.70;;;;;;;4.40;100.00;93201.06;2098839;28;20033;-86
2021/10/20 03:54:54;;;;;;;6.50;3.53;;;;;;;4.37;100.00;93193.84;2099183;28;20028;-88
2021/10/20 03:55:55;;;;;;;6.13;3.30;;;;;;;4.27;100.00;93200.63;2106941;28;20106;-85
2021/10/20 03:56:56;;;;;;;3.40;3.08;;;;;;;4.37;100.00;93207.84;2106420;28;20115;-85
2021/10/20 03:57:59;;;;;;;7.25;3.60;;;;;;;4.35;100.00;93202.16;2098911;28;20377;-89
2021/10/20 03:59:00;;;;;;;3.38;2.97;;;;;;;4.35;100.00;93206.72;2099583;28;20107;-90
2021/10/20 04:00:01;;;;;;;4.35;3.42;;;;;;;4.25;100.00;93211.56;2100824;28;20043;-88
2021/10/20 04:01:02;;;;;;;3.78;3.10;;;;;;;4.24;100.00;93207.41;2113078;28;20023;-85
2021/10/20 04:02:03;;;;;;;3.72;2.75;;;;;;;4.30;100.00;93207.81;2107128;28;20047;-88
2021/10/20 04:03:04;;;;;;;4.55;3.05;;;;;;;4.25;100.00;93205.53;2105247;28;20086;-88
2021/10/20 04:04:06;;;;;;;3.85;3.45;;;;;;;4.22;100.00;93204.41;2106995;28;20035;-88
2021/10/20 04:05:07;;;;;;;3.40;3.10;;;;;;;4.17;100.00;93201.34;2090704;28;20020;-87
2021/10/20 04:06:09;;;;;;;3.50;3.10;;;;;;;4.14;100.00;93207.38;2099154;28;20039;-88
2021/10/20 04:07:10;;;;;;;5.07;3.25;;;;;;;4.19;100.00;93199.09;2098582;28;20016;-88
2021/10/20 04:08:11;;;;;;;4.75;3.40;;;;;;;4.08;100.00;93192.97;2098846;28;20080;-85
2021/10/20 04:09:12;;;;;;;6.47;3.70;;;;;;;4.02;100.00;93198.63;2098207;28;20060;-89
2021/10/20 04:10:16;;;;;;;4.00;3.60;;;;;;;3.92;100.00;93191.44;2107295;28;20030;-88
2021/10/20 04:11:17;;;;;;;4.00;3.42;;;;;;;3.98;100.00;93189.94;2099513;28;20594;-89
2021/10/20 04:12:18;;;;;;;3.72;2.97;;;;;;;4.11;100.00;93194.91;2107040;28;20114;-89
2021/10/20 04:13:19;;;;;;;3.42;3.03;;;;;;;4.22;100.00;93179.84;2098870;28;20028;-88
2021/10/20 04:14:20;;;;;;;3.40;3.10;;;;;;;4.16;100.00;93194.53;2098902;28;20103;-90
2021/10/20 04:15:24;;;;;;;5.85;3.50;;;;;;;4.04;100.00;93187.69;2107305;28;20016;-88
2021/10/20 04:16:25;;;;;;;3.75;3.03;;;;;;;4.21;100.00;93192.28;2107066;28;20095;-88
2021/10/20 04:17:26;;;;;;;4.22;3.40;;;;;;;4.15;100.00;93193.03;2098722;28;20020;-88
2021/10/20 04:18:27;;;;;;;5.68;3.47;;;;;;;4.17;100.00;93194.19;2107203;28;20117;-89
2021/10/20 04:19:28;;;;;;;3.42;3.10;;;;;;;4.29;100.00;93193.06;2116973;27;20024;-89
2021/10/20 04:20:29;;;;;;;4.80;3.15;;;;;;;4.16;100.00;93192.63;2107173;28;20030;-87
2021/10/20 04:21:30;;;;;;;5.45;3.90;;;;;;;4.01;100.00;93191.84;2098665;28;20020;-87
2021/10/20 04:22:31;;;;;;;4.90;3.20;;;;;;;3.93;100.00;93190.28;2115192;28;20043;-87
2021/10/20 04:23:32;;;;;;;6.25;3.38;;;;;;;3.92;100.00;93191.44;2115318;28;20039;-87
2021/10/20 04:24:33;;;;;;;4.18;3.63;;;;;;;3.98;100.00;93183.88;2115396;28;20098;-88
2021/10/20 04:25:34;;;;;;;5.97;3.90;;;;;;;3.96;100.00;93189.56;2106968;28;20024;-87
2021/10/20 04:26:35;;;;;;;4.35;3.95;;;;;;;3.87;100.00;93191.78;2106882;28;20774;-89
2021/10/20 04:27:39;;;;;;;5.03;4.30;;;;;;;3.99;100.00;93190.69;2098969;28;20029;-88
2021/10/20 04:28:40;;;;;;;5.00;4.60;;;;;;;3.91;100.00;93181.22;2099292;28;20362;-86
2021/10/20 04:29:40;;;;;;;5.18;4.63;;;;;;;3.82;100.00;93192.13;2106918;28;20031;-85
2021/10/20 04:30:41;;;;;;;5.95;4.90;;;;;;;3.90;100.00;93182.34;2106973;28;20030;-87
2021/10/20 04:31:43;;;;;;;6.00;5.15;;;;;;;3.88;100.00;93185.34;2098663;28;20024;-88
2021/10/20 04:32:44;;;;;;;6.97;6.30;;;;;;;3.91;100.00;93186.50;2106869;28;20051;-86
2021/10/20 04:33:45;;;;;;;6.85;3.97;;;;;;;3.99;100.00;93185.41;2100356;28;20689;-89
2021/10/20 04:34:46;;;;;;;3.08;2.83;;;;;;;3.98;100.00;93183.88;2115340;28;20053;-90
2021/10/20 04:35:47;;;;;;;4.03;3.40;;;;;;;3.95;100.00;93184.63;2098538;28;20027;-89
2021/10/20 04:36:48;;;;;;;4.93;3.90;;;;;;;3.86;100.00;93182.31;2098635;28;20027;-89
2021/10/20 04:37:50;;;;;;;4.18;3.47;;;;;;;4.01;100.00;93181.25;2098499;28;20516;-91
2021/10/20 04:38:51;;;;;;;4.70;3.58;;;;;;;3.89;100.00;93191.41;2098448;28;20055;-87
2021/10/20 04:39:53;;;;;;;3.75;3.38;;;;;;;3.81;100.00;93187.97;2098765;28;20016;-87
2021/10/20 04:40:54;;;;;;;7.53;3.80;;;;;;;3.78;100.00;93186.06;2103751;28;20028;-89
2021/10/20 04:41:55;;;;;;;4.68;4.20;;;;;;;3.83;100.00;93187.59;2098422;28;20025;-91
2021/10/20 04:42:57;;;;;;;5.25;4.75;;;;;;;3.87;100.00;93178.56;2098376;28;20020;-89
2021/10/20 04:43:58;;;;;;;4.95;4.50;;;;;;;3.84;100.00;93179.28;2100505;28;20024;-89
2021/10/20 04:44:59;;;;;;;4.50;4.10;;;;;;;3.72;100.00;93177.72;2098433;28;20131;-88
2021/10/20 04:46:00;;;;;;;6.03;4.10;;;;;;;3.64;100.00;93175.41;2106937;28;20657;-90
2021/10/20 04:47:01;;;;;;;5.55;3.67;;;;;;;3.71;100.00;93170.94;2108638;28;20027;-89
2021/10/20 04:48:03;;;;;;;3.63;3.33;;;;;;;3.75;100.00;93178.88;2106713;28;20024;-89
2021/10/20 04:49:04;;;;;;;4.22;3.78;;;;;;;3.68;100.00;93176.19;2106808;28;20043;-87
2021/10/20 04:50:08;;;;;;;3.95;3.53;;;;;;;3.63;100.00;93174.66;2098235;28;20056;-87